Terminal Aerodrome Forecast
Issued by NWS Jackson, MS

Home | Current Version | Previous Version | Text Only | Print | Product List | Glossary On
Versions: 1 2 3 4 5 6 7 8 9 10 11 12 13 14 15 16 17 18 19 20
823
FTUS44 KJAN 162320
TAFGLH
TAF
KGLH 162320Z 1700/1724 16008KT P6SM VCSH BKN070
     FM170400 18012KT P6SM VCSH OVC015
     FM170900 22006KT 4SM BR VCSH OVC007
     FM171400 33007KT 2SM -RA BR VCTS OVC015CB=

USA.gov is the U.S. government's official web portal to all federal, state and local government web resources and services.